Time;durP1;ratioP1;P1;durP2;ratioP2;P2;SDS_P1;SDS_P2;PMS_P1;PMS_P2;Temp;Humidity;BMP_temperature;BMP_pressure;BME280_temperature;BME280_humidity;BME280_pressure;Samples;Min_cycle;Max_cycle;Signal;HPM_P1;HPM_P2
2021/10/18 00:01:46;;;;;;;6.57;2.22;;;;;;;;;;5052989;28;20021;-79
2021/10/18 00:04:12;;;;;;;7.43;2.40;;;;;;;;;;5034717;28;20116;-79
2021/10/18 00:06:38;;;;;;;4.13;2.13;;;;;;;;;;5034909;28;20025;-79
2021/10/18 00:09:04;;;;;;;5.57;2.10;;;;;;;;;;5036262;28;20628;-78
2021/10/18 00:11:30;;;;;;;5.68;2.50;;;;;;;;;;5035518;28;20060;-79
2021/10/18 00:13:56;;;;;;;5.25;2.20;;;;;;;;;;5051863;28;20462;-79
2021/10/18 00:16:22;;;;;;;4.78;1.98;;;;;;;;;;5055107;28;20037;-79
2021/10/18 00:18:48;;;;;;;7.03;2.42;;;;;;;;;;5041241;28;20117;-79
2021/10/18 00:21:14;;;;;;;6.50;2.17;;;;;;;;;;5035130;28;20393;-79
2021/10/18 00:23:40;;;;;;;5.78;2.42;;;;;;;;;;5046075;28;20033;-79
2021/10/18 00:26:06;;;;;;;4.93;2.03;;;;;;;;;;5035901;28;20068;-79
2021/10/18 00:28:32;;;;;;;5.43;2.80;;;;;;;;;;5041829;28;20051;-79
2021/10/18 00:30:58;;;;;;;5.13;2.10;;;;;;;;;;5054983;28;20040;-79
2021/10/18 00:33:24;;;;;;;7.15;2.53;;;;;;;;;;5048220;28;20075;-79
2021/10/18 00:35:50;;;;;;;4.50;1.90;;;;;;;;;;5034860;28;20084;-79
2021/10/18 00:38:16;;;;;;;4.43;2.08;;;;;;;;;;5034589;28;20463;-78
2021/10/18 00:40:42;;;;;;;7.15;2.20;;;;;;;;;;5034845;28;20073;-79
2021/10/18 00:43:08;;;;;;;3.95;2.00;;;;;;;;;;5042811;28;20069;-79
2021/10/18 00:45:34;;;;;;;6.18;2.45;;;;;;;;;;5046937;28;20064;-79
2021/10/18 00:48:01;;;;;;;6.47;2.45;;;;;;;;;;5053692;28;20037;-79
2021/10/18 00:50:27;;;;;;;4.93;2.17;;;;;;;;;;5053795;28;20029;-79
2021/10/18 00:52:53;;;;;;;6.30;2.15;;;;;;;;;;5046764;28;20049;-79
2021/10/18 00:55:19;;;;;;;4.85;1.70;;;;;;;;;;5053433;28;20033;-78
2021/10/18 00:57:46;;;;;;;4.05;1.60;;;;;;;;;;5053447;28;20064;-79
2021/10/18 01:00:13;;;;;;;6.80;1.45;;;;;;;;;;5039611;28;20044;-79
2021/10/18 01:02:39;;;;;;;4.38;1.50;;;;;;;;;;5034847;28;20053;-79
2021/10/18 01:05:06;;;;;;;2.90;1.20;;;;;;;;;;5053006;28;20737;-78
2021/10/18 01:07:32;;;;;;;2.67;1.40;;;;;;;;;;5053377;28;20477;-78
2021/10/18 01:09:59;;;;;;;7.82;1.63;;;;;;;;;;5053068;28;20044;-79
2021/10/18 01:12:25;;;;;;;3.55;1.30;;;;;;;;;;5053429;28;20061;-78
2021/10/18 01:14:51;;;;;;;4.00;1.50;;;;;;;;;;5053103;28;20040;-78
2021/10/18 01:17:17;;;;;;;3.25;1.33;;;;;;;;;;5053247;28;20046;-79
2021/10/18 01:19:43;;;;;;;6.03;2.22;;;;;;;;;;5052333;28;20033;-78
2021/10/18 01:22:09;;;;;;;5.03;2.33;;;;;;;;;;5053639;28;20755;-79
2021/10/18 01:24:36;;;;;;;6.80;2.20;;;;;;;;;;5053054;28;20061;-78
2021/10/18 01:27:02;;;;;;;7.05;1.70;;;;;;;;;;5042957;28;20614;-79
2021/10/18 01:29:38;;;;;;;6.10;1.90;;;;;;;;;;5044980;28;20105;-78
2021/10/18 01:32:05;;;;;;;4.28;1.50;;;;;;;;;;5034402;28;20060;-78
2021/10/18 01:34:31;;;;;;;8.30;2.20;;;;;;;;;;5032540;28;20030;-78
2021/10/18 01:36:58;;;;;;;7.30;2.38;;;;;;;;;;5042129;28;20112;-79
2021/10/18 01:39:25;;;;;;;8.00;2.47;;;;;;;;;;5038829;28;20064;-78
2021/10/18 01:41:51;;;;;;;7.88;2.40;;;;;;;;;;5033367;28;20032;-78
2021/10/18 01:44:17;;;;;;;6.53;2.92;;;;;;;;;;5040136;28;20029;-79
2021/10/18 01:46:43;;;;;;;6.93;2.75;;;;;;;;;;5052852;28;20029;-79
2021/10/18 01:49:09;;;;;;;8.73;3.25;;;;;;;;;;5038752;28;20033;-79
2021/10/18 01:51:36;;;;;;;8.15;2.92;;;;;;;;;;5044645;28;20029;-79
2021/10/18 01:54:02;;;;;;;10.82;3.35;;;;;;;;;;5045629;28;20040;-79
2021/10/18 01:56:29;;;;;;;7.50;3.40;;;;;;;;;;5052592;28;20040;-79
2021/10/18 01:58:55;;;;;;;6.35;2.25;;;;;;;;;;5051577;28;20090;-79
2021/10/18 02:01:21;;;;;;;6.57;2.72;;;;;;;;;;5032548;28;20091;-78
2021/10/18 02:03:47;;;;;;;5.18;2.50;;;;;;;;;;5032635;28;20100;-78
2021/10/18 02:06:13;;;;;;;6.32;2.80;;;;;;;;;;5031882;28;20112;-79
2021/10/18 02:08:39;;;;;;;8.25;3.20;;;;;;;;;;5032817;28;20029;-79
2021/10/18 02:11:06;;;;;;;12.50;2.80;;;;;;;;;;5032731;28;20048;-78
2021/10/18 02:13:32;;;;;;;6.20;2.75;;;;;;;;;;5032798;28;20064;-79
2021/10/18 02:15:58;;;;;;;6.65;2.67;;;;;;;;;;5031962;28;20103;-78
2021/10/18 02:18:24;;;;;;;4.38;2.30;;;;;;;;;;5032028;28;20037;-79
2021/10/18 02:20:50;;;;;;;7.13;2.20;;;;;;;;;;5032366;28;20037;-79
2021/10/18 02:23:16;;;;;;;5.93;2.30;;;;;;;;;;5032662;28;20032;-78
2021/10/18 02:25:42;;;;;;;6.00;2.03;;;;;;;;;;5031611;28;20033;-79
2021/10/18 02:28:08;;;;;;;5.38;2.72;;;;;;;;;;5031914;28;20518;-79
2021/10/18 02:30:34;;;;;;;9.13;1.83;;;;;;;;;;5031642;28;20034;-78
2021/10/18 02:33:00;;;;;;;5.72;2.50;;;;;;;;;;5031612;28;20052;-79
2021/10/18 02:35:26;;;;;;;4.80;2.10;;;;;;;;;;5031599;28;20033;-79
2021/10/18 02:37:52;;;;;;;5.25;2.30;;;;;;;;;;5032047;28;20530;-79
2021/10/18 02:40:18;;;;;;;6.30;1.85;;;;;;;;;;5032804;28;20049;-79
2021/10/18 02:42:44;;;;;;;4.57;1.98;;;;;;;;;;5033314;28;20349;-78
2021/10/18 02:45:11;;;;;;;5.97;1.88;;;;;;;;;;5032747;28;20550;-79
2021/10/18 02:47:37;;;;;;;6.07;1.92;;;;;;;;;;5032157;28;20052;-78
2021/10/18 02:50:04;;;;;;;4.93;2.17;;;;;;;;;;5032661;28;20043;-78
2021/10/18 02:52:30;;;;;;;5.30;2.22;;;;;;;;;;5032323;28;20044;-78
2021/10/18 02:54:56;;;;;;;4.85;1.95;;;;;;;;;;5031959;28;20041;-78
2021/10/18 02:57:22;;;;;;;5.78;2.20;;;;;;;;;;5031993;28;20395;-79
2021/10/18 02:59:48;;;;;;;6.55;1.83;;;;;;;;;;5030385;28;20487;-78
2021/10/18 03:02:17;;;;;;;6.35;1.67;;;;;;;;;;5031926;28;20071;-78
2021/10/18 03:04:43;;;;;;;4.97;1.75;;;;;;;;;;5031378;28;20132;-78
2021/10/18 03:07:09;;;;;;;6.40;2.22;;;;;;;;;;5031392;28;20191;-78
2021/10/18 03:09:35;;;;;;;10.25;4.30;;;;;;;;;;5031774;28;20033;-78
2021/10/18 03:12:01;;;;;;;9.13;4.05;;;;;;;;;;5031775;28;20033;-78
2021/10/18 03:14:27;;;;;;;7.00;3.00;;;;;;;;;;5031443;28;20033;-78
2021/10/18 03:16:53;;;;;;;6.88;2.40;;;;;;;;;;5030893;28;20383;-78
2021/10/18 03:19:19;;;;;;;5.03;1.77;;;;;;;;;;5030899;28;20060;-78
2021/10/18 03:21:45;;;;;;;4.50;1.65;;;;;;;;;;5031213;28;20033;-78
2021/10/18 03:24:11;;;;;;;6.22;2.15;;;;;;;;;;5034023;28;20032;-78
2021/10/18 03:26:37;;;;;;;10.38;4.13;;;;;;;;;;5042206;28;20036;-79
2021/10/18 03:29:03;;;;;;;9.55;4.35;;;;;;;;;;5042534;28;20346;-78
2021/10/18 03:31:29;;;;;;;7.40;3.65;;;;;;;;;;5036605;28;20044;-78
2021/10/18 03:33:55;;;;;;;7.75;3.70;;;;;;;;;;5030943;28;20032;-78
2021/10/18 03:36:21;;;;;;;12.70;3.20;;;;;;;;;;5030106;28;20037;-78
2021/10/18 03:38:47;;;;;;;8.13;3.35;;;;;;;;;;5039001;28;20370;-78
2021/10/18 03:41:14;;;;;;;8.63;2.38;;;;;;;;;;5038948;28;20042;-78
2021/10/18 03:43:40;;;;;;;5.75;2.33;;;;;;;;;;5039322;28;20029;-79
2021/10/18 03:46:06;;;;;;;7.70;3.17;;;;;;;;;;5049245;28;20635;-79
2021/10/18 03:48:32;;;;;;;11.15;4.22;;;;;;;;;;5044589;28;20025;-78
2021/10/18 03:50:58;;;;;;;9.77;4.68;;;;;;;;;;5038584;28;20375;-78
2021/10/18 03:53:24;;;;;;;11.13;4.70;;;;;;;;;;5038921;28;20057;-78
2021/10/18 03:55:50;;;;;;;9.20;4.78;;;;;;;;;;5039227;28;20045;-79
2021/10/18 03:58:16;;;;;;;6.35;2.25;;;;;;;;;;5042198;28;20574;-79
2021/10/18 04:00:43;;;;;;;4.82;1.40;;;;;;;;;;5050309;28;20041;-79
2021/10/18 04:03:09;;;;;;;5.57;1.85;;;;;;;;;;5050317;28;20485;-78
2021/10/18 04:05:35;;;;;;;8.65;3.00;;;;;;;;;;5050131;28;20033;-79
2021/10/18 04:08:01;;;;;;;7.00;2.58;;;;;;;;;;5050148;28;20033;-78
2021/10/18 04:10:27;;;;;;;4.63;2.30;;;;;;;;;;5050080;28;20399;-79
2021/10/18 04:12:53;;;;;;;4.38;1.90;;;;;;;;;;5049806;28;20071;-78
2021/10/18 04:15:20;;;;;;;5.72;2.10;;;;;;;;;;5030172;28;20479;-79
2021/10/18 04:17:46;;;;;;;4.78;2.08;;;;;;;;;;5012396;28;20368;-78
2021/10/18 04:20:12;;;;;;;5.78;2.33;;;;;;;;;;5030690;28;20395;-78
2021/10/18 04:22:38;;;;;;;5.57;2.00;;;;;;;;;;5030553;28;20053;-79
2021/10/18 04:25:04;;;;;;;6.55;2.20;;;;;;;;;;5030161;28;20112;-79
2021/10/18 04:27:30;;;;;;;6.70;2.08;;;;;;;;;;5030329;28;20095;-78
2021/10/18 04:29:56;;;;;;;5.95;2.25;;;;;;;;;;5030557;28;20037;-78
2021/10/18 04:32:22;;;;;;;4.90;1.95;;;;;;;;;;5030197;28;20442;-79
2021/10/18 04:34:48;;;;;;;5.55;1.95;;;;;;;;;;5030063;28;20050;-78
2021/10/18 04:37:14;;;;;;;3.95;1.45;;;;;;;;;;5033590;28;20482;-78
2021/10/18 04:39:40;;;;;;;4.28;1.95;;;;;;;;;;5033162;28;20038;-78
2021/10/18 04:42:06;;;;;;;6.80;2.30;;;;;;;;;;5052543;28;20025;-78
2021/10/18 04:44:32;;;;;;;9.38;2.75;;;;;;;;;;5053644;28;20043;-78
2021/10/18 04:46:58;;;;;;;7.80;2.67;;;;;;;;;;5053232;28;20029;-78
2021/10/18 04:49:24;;;;;;;7.47;2.45;;;;;;;;;;5053249;28;20047;-79
2021/10/18 04:51:50;;;;;;;6.60;2.35;;;;;;;;;;5036597;28;20044;-78
2021/10/18 04:54:16;;;;;;;7.70;2.83;;;;;;;;;;5041715;28;20026;-78
2021/10/18 04:56:42;;;;;;;8.50;2.83;;;;;;;;;;5040826;28;20025;-78
2021/10/18 04:59:08;;;;;;;5.97;2.40;;;;;;;;;;5053480;28;20140;-78
2021/10/18 05:01:34;;;;;;;10.57;8.45;;;;;;;;;;5053443;28;20123;-78
2021/10/18 05:04:00;;;;;;;7.80;4.43;;;;;;;;;;5054925;28;20029;-78
2021/10/18 05:06:26;;;;;;;7.97;2.63;;;;;;;;;;5055228;28;20037;-78
2021/10/18 05:08:54;;;;;;;8.23;2.80;;;;;;;;;;5055809;28;20021;-78
2021/10/18 05:11:20;;;;;;;7.70;2.95;;;;;;;;;;5055203;28;20482;-78
2021/10/18 05:13:46;;;;;;;8.20;3.35;;;;;;;;;;5055443;28;20037;-78
2021/10/18 05:16:12;;;;;;;7.90;3.35;;;;;;;;;;5054231;28;20135;-78
2021/10/18 05:18:38;;;;;;;7.03;2.60;;;;;;;;;;5035442;28;20045;-78
2021/10/18 05:21:06;;;;;;;11.40;4.22;;;;;;;;;;5035404;28;20486;-78
2021/10/18 05:23:35;;;;;;;11.35;4.68;;;;;;;;;;5036086;28;20025;-78
2021/10/18 05:26:04;;;;;;;11.30;4.50;;;;;;;;;;5034127;28;20495;-78
2021/10/18 05:28:30;;;;;;;12.02;4.72;;;;;;;;;;5033817;28;20029;-78
2021/10/18 05:30:56;;;;;;;13.15;4.75;;;;;;;;;;5055968;28;20079;-78
2021/10/18 05:33:22;;;;;;;12.48;4.63;;;;;;;;;;5033733;28;20064;-79
2021/10/18 05:35:48;;;;;;;8.98;4.38;;;;;;;;;;5032725;28;20163;-78
2021/10/18 05:38:18;;;;;;;12.50;4.10;;;;;;;;;;5032692;28;20433;-78
2021/10/18 05:40:44;;;;;;;11.45;3.15;;;;;;;;;;5032204;28;20041;-78
2021/10/18 05:43:10;;;;;;;11.10;3.97;;;;;;;;;;5033688;28;20029;-78
2021/10/18 05:45:36;;;;;;;12.07;3.40;;;;;;;;;;5048969;28;20079;-78
2021/10/18 05:48:03;;;;;;;8.57;3.58;;;;;;;;;;5049504;28;20116;-79
2021/10/18 05:50:30;;;;;;;13.80;3.97;;;;;;;;;;5042382;28;20037;-78
2021/10/18 05:52:57;;;;;;;14.65;3.75;;;;;;;;;;5031418;28;20033;-78
2021/10/18 05:55:23;;;;;;;11.77;4.65;;;;;;;;;;5041878;28;20076;-78
2021/10/18 05:57:53;;;;;;;8.32;3.25;;;;;;;;;;5052789;28;20132;-77
2021/10/18 06:00:20;;;;;;;10.18;3.85;;;;;;;;;;5043627;28;20073;-78
2021/10/18 06:02:46;;;;;;;9.27;3.90;;;;;;;;;;5047373;28;20075;-78
2021/10/18 06:05:12;;;;;;;8.55;3.72;;;;;;;;;;5042320;28;20033;-78
2021/10/18 06:07:38;;;;;;;9.50;3.70;;;;;;;;;;5052902;28;20056;-78
2021/10/18 06:10:05;;;;;;;11.05;4.28;;;;;;;;;;5052549;28;20036;-77
2021/10/18 06:12:32;;;;;;;9.52;3.97;;;;;;;;;;5037153;28;20116;-78
2021/10/18 06:14:58;;;;;;;12.13;4.50;;;;;;;;;;5040481;28;20037;-77
2021/10/18 06:17:24;;;;;;;9.50;4.25;;;;;;;;;;5050728;28;20029;-77
2021/10/18 06:19:50;;;;;;;12.02;4.38;;;;;;;;;;5054277;28;20087;-77
2021/10/18 06:22:16;;;;;;;13.05;5.00;;;;;;;;;;5048810;28;20078;-77
2021/10/18 06:24:42;;;;;;;12.73;5.82;;;;;;;;;;5050907;28;20413;-77
2021/10/18 06:27:09;;;;;;;13.85;4.47;;;;;;;;;;5047905;28;20021;-77
2021/10/18 06:29:35;;;;;;;14.48;5.60;;;;;;;;;;5045804;28;20103;-77
2021/10/18 06:32:01;;;;;;;14.23;5.22;;;;;;;;;;5041931;28;20040;-77
2021/10/18 06:34:28;;;;;;;13.65;4.75;;;;;;;;;;5045679;28;20762;-78
2021/10/18 06:36:53;;;;;;;15.55;5.07;;;;;;;;;;5053327;28;20092;-78
2021/10/18 06:39:19;;;;;;;13.07;4.50;;;;;;;;;;5055141;28;20117;-77
2021/10/18 06:41:45;;;;;;;13.45;4.95;;;;;;;;;;5047646;28;20025;-78
2021/10/18 06:44:12;;;;;;;14.05;4.70;;;;;;;;;;5054039;28;20385;-78
2021/10/18 06:46:37;;;;;;;12.63;4.68;;;;;;;;;;5051220;28;20374;-77
2021/10/18 06:49:04;;;;;;;13.52;5.80;;;;;;;;;;5038854;28;20044;-77
2021/10/18 06:51:36;;;;;;;14.40;5.18;;;;;;;;;;5050717;28;20057;-77
2021/10/18 06:54:03;;;;;;;;;;;;;;;;;;5046969;28;20094;-78
2021/10/18 06:56:29;;;;;;;16.90;5.68;;;;;;;;;;5031034;28;19919;-77
2021/10/18 06:58:55;;;;;;;15.50;5.40;;;;;;;;;;5045826;28;20078;-77
2021/10/18 07:01:21;;;;;;;13.00;5.72;;;;;;;;;;5043359;28;20033;-77
2021/10/18 07:03:47;;;;;;;15.32;6.60;;;;;;;;;;5051141;28;20100;-78
2021/10/18 07:06:13;;;;;;;15.93;7.38;;;;;;;;;;5040513;28;20053;-77
2021/10/18 07:08:39;;;;;;;15.07;7.38;;;;;;;;;;5050273;28;20818;-77
2021/10/18 07:11:05;;;;;;;13.10;6.82;;;;;;;;;;5042003;28;20113;-77
2021/10/18 07:13:31;;;;;;;15.18;6.43;;;;;;;;;;5044268;28;20413;-78
2021/10/18 07:15:57;;;;;;;11.68;5.65;;;;;;;;;;5041411;28;20033;-77
2021/10/18 07:18:24;;;;;;;13.13;5.47;;;;;;;;;;5049467;28;20521;-77
2021/10/18 07:20:50;;;;;;;13.80;6.38;;;;;;;;;;5050114;28;20060;-77
2021/10/18 07:23:16;;;;;;;20.55;5.97;;;;;;;;;;5048219;28;20371;-78
2021/10/18 07:25:43;;;;;;;14.80;5.18;;;;;;;;;;5049620;28;20033;-78
2021/10/18 07:28:10;;;;;;;15.43;5.10;;;;;;;;;;5041264;28;20033;-77
2021/10/18 07:30:37;;;;;;;11.75;5.03;;;;;;;;;;5056191;28;20162;-78
2021/10/18 07:33:03;;;;;;;14.43;6.70;;;;;;;;;;5050358;28;20477;-77
2021/10/18 07:35:32;;;;;;;15.00;6.78;;;;;;;;;;5050487;28;20037;-77
2021/10/18 07:37:59;;;;;;;12.23;4.50;;;;;;;;;;5042174;28;20045;-77
2021/10/18 07:40:26;;;;;;;12.00;4.50;;;;;;;;;;5046679;28;20037;-77
2021/10/18 07:42:52;;;;;;;12.43;3.72;;;;;;;;;;5053940;28;20057;-77
2021/10/18 07:45:18;;;;;;;11.05;4.25;;;;;;;;;;5043151;28;20067;-77
2021/10/18 07:47:44;;;;;;;11.20;3.63;;;;;;;;;;5039115;28;20032;-77
2021/10/18 07:50:11;;;;;;;11.40;4.93;;;;;;;;;;5042841;28;20047;-77
2021/10/18 07:52:41;;;;;;;11.02;3.70;;;;;;;;;;5057525;28;20111;-77
2021/10/18 07:55:17;;;;;;;8.70;3.40;;;;;;;;;;5030165;28;20451;-77
2021/10/18 07:57:43;;;;;;;10.23;4.65;;;;;;;;;;5059708;28;20041;-77
2021/10/18 08:00:10;;;;;;;11.50;4.93;;;;;;;;;;5040747;28;20391;-77
2021/10/18 08:02:36;;;;;;;14.63;6.55;;;;;;;;;;5050784;28;20025;-77
2021/10/18 08:05:02;;;;;;;14.00;5.72;;;;;;;;;;5049495;28;20041;-77
2021/10/18 08:07:31;;;;;;;11.38;5.00;;;;;;;;;;5040110;28;20025;-77
2021/10/18 08:09:59;;;;;;;11.35;4.57;;;;;;;;;;5048434;28;20120;-77
2021/10/18 08:12:25;;;;;;;13.63;4.43;;;;;;;;;;5060548;28;20090;-77
2021/10/18 08:14:51;;;;;;;12.45;4.78;;;;;;;;;;5067536;28;20047;-77
2021/10/18 08:17:17;;;;;;;10.82;4.22;;;;;;;;;;5055972;28;20116;-78
2021/10/18 08:19:43;;;;;;;8.05;3.47;;;;;;;;;;5049062;28;20037;-77
2021/10/18 08:22:09;;;;;;;13.30;4.00;;;;;;;;;;5049641;28;20075;-77
2021/10/18 08:24:35;;;;;;;12.00;3.83;;;;;;;;;;5061347;28;20554;-78
2021/10/18 08:27:01;;;;;;;10.25;4.20;;;;;;;;;;5052770;28;20056;-77
2021/10/18 08:29:27;;;;;;;12.05;3.85;;;;;;;;;;5061708;28;20036;-76
2021/10/18 08:31:53;;;;;;;10.65;3.40;;;;;;;;;;5055703;28;20074;-76
2021/10/18 08:34:19;;;;;;;10.88;3.60;;;;;;;;;;5052234;28;20045;-77
2021/10/18 08:36:45;;;;;;;9.38;2.97;;;;;;;;;;5047893;28;20037;-77
2021/10/18 08:42:04;;;;;;;7.25;2.45;;;;;;;;;;5052305;28;20040;-77
2021/10/18 08:44:30;;;;;;;5.15;1.85;;;;;;;;;;5056263;28;20123;-77
2021/10/18 08:47:02;;;;;;;4.35;1.70;;;;;;;;;;5051836;28;20467;-77
2021/10/18 08:49:28;;;;;;;4.20;1.70;;;;;;;;;;5052184;28;20029;-77
2021/10/18 08:51:54;;;;;;;5.60;1.48;;;;;;;;;;5033578;28;20367;-77
2021/10/18 08:54:20;;;;;;;5.25;1.98;;;;;;;;;;5050103;28;20394;-77
2021/10/18 08:56:46;;;;;;;5.82;2.10;;;;;;;;;;5035500;28;20021;-77
2021/10/18 08:59:12;;;;;;;5.43;1.67;;;;;;;;;;5038721;28;20065;-77
2021/10/18 09:01:44;;;;;;;7.18;1.95;;;;;;;;;;5044636;28;20032;-77
2021/10/18 09:04:24;;;;;;;5.45;1.80;;;;;;;;;;5046854;28;20047;-77
2021/10/18 09:06:50;;;;;;;6.38;2.10;;;;;;;;;;5032932;28;20017;-77
2021/10/18 09:09:20;;;;;;;6.88;1.88;;;;;;;;;;5040643;28;20060;-77
2021/10/18 09:11:47;;;;;;;6.55;2.40;;;;;;;;;;5040232;28;20029;-77
2021/10/18 09:14:14;;;;;;;10.95;2.45;;;;;;;;;;5037812;28;20060;-77
2021/10/18 09:16:43;;;;;;;7.80;1.98;;;;;;;;;;5047865;28;20501;-77
2021/10/18 09:19:10;;;;;;;9.13;2.83;;;;;;;;;;5047779;28;20106;-77
2021/10/18 09:21:37;;;;;;;33.17;4.20;;;;;;;;;;5050152;28;20111;-77
2021/10/18 09:24:04;;;;;;;14.40;3.38;;;;;;;;;;5041375;28;20451;-77
2021/10/18 09:26:33;;;;;;;8.60;3.00;;;;;;;;;;5034356;28;20034;-77
2021/10/18 09:29:10;;;;;;;9.30;2.92;;;;;;;;;;5045737;28;20025;-77
2021/10/18 09:31:36;;;;;;;11.30;2.13;;;;;;;;;;5043496;28;20045;-76
2021/10/18 09:34:13;;;;;;;8.38;2.17;;;;;;;;;;5050892;28;20036;-77
2021/10/18 09:36:40;;;;;;;6.57;1.80;;;;;;;;;;5041745;28;20045;-77
2021/10/18 09:39:28;;;;;;;9.13;1.77;;;;;;;;;;5054041;28;20033;-77
2021/10/18 09:42:00;;;;;;;6.13;1.70;;;;;;;;;;5045814;28;20490;-77
2021/10/18 09:45:28;;;;;;;10.35;2.42;;;;;;;;;;5040939;28;20033;-77
2021/10/18 10:54:10;;;;;;;6.00;1.67;;;;;;;;;;5040806;28;20041;-76
2021/10/18 10:56:48;;;;;;;5.32;1.85;;;;;;;;;;5037733;28;20037;-77
2021/10/18 10:59:23;;;;;;;5.97;1.73;;;;;;;;;;5036033;28;20075;-76
2021/10/18 11:01:49;;;;;;;9.07;2.20;;;;;;;;;;5039293;28;20033;-76
2021/10/18 11:04:31;;;;;;;7.15;1.95;;;;;;;;;;5040958;28;20095;-77
2021/10/18 11:07:01;;;;;;;6.07;1.85;;;;;;;;;;5034316;28;20128;-77
2021/10/18 11:09:43;;;;;;;5.38;1.75;;;;;;;;;;5042601;28;20032;-76
2021/10/18 11:12:29;;;;;;;5.88;1.63;;;;;;;;;;5045154;28;20033;-76
2021/10/18 11:14:56;;;;;;;7.20;1.67;;;;;;;;;;5043012;28;20040;-76
2021/10/18 11:17:33;;;;;;;6.85;1.77;;;;;;;;;;5040247;28;20034;-77
2021/10/18 11:20:01;;;;;;;8.50;1.95;;;;;;;;;;5037568;28;20040;-77
2021/10/18 11:22:28;;;;;;;5.47;1.73;;;;;;;;;;5039859;28;20050;-77
2021/10/18 11:24:54;;;;;;;4.88;1.52;;;;;;;;;;5053990;28;20051;-77
2021/10/18 11:27:24;;;;;;;6.68;1.58;;;;;;;;;;5048162;28;20029;-77
2021/10/18 11:29:55;;;;;;;5.40;1.67;;;;;;;;;;5039660;28;20051;-78
2021/10/18 11:32:21;;;;;;;6.95;1.67;;;;;;;;;;5050968;28;20040;-77
2021/10/18 11:34:47;;;;;;;6.78;1.48;;;;;;;;;;5043026;28;20028;-77
2021/10/18 11:37:13;;;;;;;4.20;1.38;;;;;;;;;;5036131;28;20034;-78
2021/10/18 11:39:39;;;;;;;4.70;1.40;;;;;;;;;;5044636;28;20047;-77
2021/10/18 11:42:05;;;;;;;7.30;1.60;;;;;;;;;;5037775;28;20030;-77
2021/10/18 11:44:42;;;;;;;6.70;1.80;;;;;;;;;;5040239;28;20040;-77
2021/10/18 11:47:22;;;;;;;7.97;1.55;;;;;;;;;;5047875;28;20025;-77
2021/10/18 11:50:03;;;;;;;5.13;1.00;;;;;;;;;;5055128;28;20044;-77
2021/10/18 11:52:30;;;;;;;2.77;1.10;;;;;;;;;;5042132;28;20096;-77
2021/10/18 11:54:56;;;;;;;4.82;1.30;;;;;;;;;;5049418;28;20056;-78
2021/10/18 11:57:22;;;;;;;3.15;1.00;;;;;;;;;;5041526;28;20091;-78
2021/10/18 11:59:48;;;;;;;3.17;1.00;;;;;;;;;;5051541;28;20025;-78
2021/10/18 12:02:24;;;;;;;3.00;1.00;;;;;;;;;;5051428;28;20029;-77
2021/10/18 12:04:56;;;;;;;5.88;0.80;;;;;;;;;;5050918;28;20579;-78
2021/10/18 12:07:39;;;;;;;2.35;0.90;;;;;;;;;;5050226;28;20123;-78
2021/10/18 12:10:11;;;;;;;4.13;1.20;;;;;;;;;;5043327;28;20108;-77
2021/10/18 12:12:37;;;;;;;3.65;1.45;;;;;;;;;;5042715;28;20108;-75
2021/10/18 12:15:05;;;;;;;3.80;1.35;;;;;;;;;;5048590;28;20432;-74
2021/10/18 12:17:32;;;;;;;6.45;1.27;;;;;;;;;;5041296;28;20033;-74
2021/10/18 12:20:00;;;;;;;4.90;1.52;;;;;;;;;;5037619;28;20041;-74
2021/10/18 12:22:26;;;;;;;4.57;1.38;;;;;;;;;;5044133;28;20078;-74
2021/10/18 12:25:01;;;;;;;2.88;1.40;;;;;;;;;;5057224;28;20028;-74
2021/10/18 12:27:28;;;;;;;4.25;1.50;;;;;;;;;;5043901;28;20032;-75
2021/10/18 12:29:54;;;;;;;3.35;1.20;;;;;;;;;;5046902;28;20124;-74
2021/10/18 12:32:20;;;;;;;4.07;1.10;;;;;;;;;;5038366;28;20872;-74
2021/10/18 12:34:46;;;;;;;4.22;1.15;;;;;;;;;;5046299;28;20029;-74
2021/10/18 12:37:13;;;;;;;2.83;1.00;;;;;;;;;;5049945;28;20025;-74
2021/10/18 12:39:43;;;;;;;3.08;1.10;;;;;;;;;;5042602;28;20033;-75
2021/10/18 12:42:11;;;;;;;2.50;1.00;;;;;;;;;;5046641;28;20045;-75
2021/10/18 12:44:41;;;;;;;3.92;1.15;;;;;;;;;;5042734;28;20052;-74
2021/10/18 12:47:11;;;;;;;4.38;1.23;;;;;;;;;;5044796;28;20043;-74
2021/10/18 12:49:38;;;;;;;2.53;0.90;;;;;;;;;;5044442;28;20028;-74
2021/10/18 12:52:05;;;;;;;2.53;1.25;;;;;;;;;;5048655;28;20029;-74
2021/10/18 12:54:39;;;;;;;2.85;1.02;;;;;;;;;;5039319;28;20686;-74
2021/10/18 12:57:06;;;;;;;4.18;1.52;;;;;;;;;;5035998;28;20021;-74
2021/10/18 12:59:33;;;;;;;3.60;1.20;;;;;;;;;;5037142;28;20179;-74
2021/10/18 13:02:19;;;;;;;2.60;1.00;;;;;;;;;;5036133;28;20505;-74
2021/10/18 13:05:01;;;;;;;6.88;1.30;;;;;;;;;;5044401;28;20100;-74
2021/10/18 13:07:27;;;;;;;5.72;1.50;;;;;;;;;;5047647;28;20024;-74
2021/10/18 13:09:53;;;;;;;3.42;1.10;;;;;;;;;;5043551;28;20639;-74
2021/10/18 13:12:22;;;;;;;4.82;1.67;;;;;;;;;;5041456;28;20029;-74
2021/10/18 13:14:48;;;;;;;4.88;1.73;;;;;;;;;;5039680;28;20033;-74
2021/10/18 13:17:14;;;;;;;4.20;1.73;;;;;;;;;;5050839;28;20025;-74
2021/10/18 13:19:40;;;;;;;5.45;1.90;;;;;;;;;;5051987;28;20044;-74
2021/10/18 13:22:06;;;;;;;5.72;1.75;;;;;;;;;;5046762;28;20108;-74
2021/10/18 13:24:32;;;;;;;5.93;2.15;;;;;;;;;;5055884;28;20396;-74
2021/10/18 13:26:58;;;;;;;8.13;2.30;;;;;;;;;;5056937;28;20067;-74
2021/10/18 13:29:24;;;;;;;4.55;1.60;;;;;;;;;;5056840;28;20036;-74
2021/10/18 13:31:50;;;;;;;4.68;1.33;;;;;;;;;;5048740;28;20028;-74
2021/10/18 13:34:16;;;;;;;4.82;1.40;;;;;;;;;;5047516;28;21106;-74
2021/10/18 13:36:42;;;;;;;6.53;2.15;;;;;;;;;;5040235;28;20033;-74
2021/10/18 13:39:08;;;;;;;6.50;2.80;;;;;;;;;;5041703;28;20115;-74
2021/10/18 13:41:34;;;;;;;5.88;2.15;;;;;;;;;;5046737;28;20028;-74
2021/10/18 13:44:01;;;;;;;6.63;2.28;;;;;;;;;;5038643;28;20060;-74
2021/10/18 13:46:27;;;;;;;6.95;2.97;;;;;;;;;;5041876;28;20033;-74
2021/10/18 13:48:53;;;;;;;11.02;2.85;;;;;;;;;;5038377;28;20051;-74
2021/10/18 13:51:21;;;;;;;6.32;3.20;;;;;;;;;;5045559;28;20048;-74
2021/10/18 13:53:47;;;;;;;7.20;3.00;;;;;;;;;;5049484;28;20052;-74
2021/10/18 13:56:13;;;;;;;7.32;2.05;;;;;;;;;;5037644;28;20075;-74
2021/10/18 13:58:40;;;;;;;4.65;2.10;;;;;;;;;;5038460;28;20061;-74
2021/10/18 14:01:06;;;;;;;4.07;2.20;;;;;;;;;;5041039;28;20041;-74
2021/10/18 14:03:33;;;;;;;4.43;2.00;;;;;;;;;;5034112;28;20079;-74
2021/10/18 14:05:59;;;;;;;5.60;2.20;;;;;;;;;;5033102;28;20041;-74
2021/10/18 14:08:25;;;;;;;5.43;2.70;;;;;;;;;;5040574;28;20029;-74
2021/10/18 14:10:51;;;;;;;6.45;2.95;;;;;;;;;;5036091;28;20478;-74
2021/10/18 14:13:17;;;;;;;6.80;3.35;;;;;;;;;;5050501;28;20071;-74
2021/10/18 14:15:43;;;;;;;7.82;3.42;;;;;;;;;;5036262;28;20068;-74
2021/10/18 14:18:09;;;;;;;6.28;2.35;;;;;;;;;;5037621;28;20036;-74
2021/10/18 14:20:36;;;;;;;5.00;2.08;;;;;;;;;;5034744;28;20902;-74
2021/10/18 14:23:03;;;;;;;4.85;1.65;;;;;;;;;;5030165;28;20076;-74
2021/10/18 14:25:29;;;;;;;4.55;1.75;;;;;;;;;;5038529;28;20017;-74
2021/10/18 14:27:56;;;;;;;5.30;1.95;;;;;;;;;;5039064;28;20050;-74
2021/10/18 14:30:21;;;;;;;5.15;2.25;;;;;;;;;;5049256;28;20029;-74
2021/10/18 14:32:53;;;;;;;6.45;2.30;;;;;;;;;;5047809;28;20036;-74
2021/10/18 14:35:19;;;;;;;12.27;2.00;;;;;;;;;;5054481;28;20029;-74
2021/10/18 14:37:45;;;;;;;7.25;1.98;;;;;;;;;;5039128;28;20029;-74
2021/10/18 14:40:11;;;;;;;4.93;1.98;;;;;;;;;;5048552;28;20540;-74
2021/10/18 14:42:37;;;;;;;7.80;2.47;;;;;;;;;;5038105;28;20126;-74
2021/10/18 14:45:03;;;;;;;7.43;2.88;;;;;;;;;;5049575;28;20112;-74
2021/10/18 14:47:29;;;;;;;5.25;2.28;;;;;;;;;;5043633;28;20059;-74
2021/10/18 14:49:55;;;;;;;4.97;2.28;;;;;;;;;;5045056;28;20482;-74
2021/10/18 14:52:22;;;;;;;6.00;2.08;;;;;;;;;;5036308;28;20037;-74
2021/10/18 14:54:49;;;;;;;4.10;1.70;;;;;;;;;;5046702;28;20027;-74
2021/10/18 14:57:15;;;;;;;5.35;2.35;;;;;;;;;;5046865;28;20036;-74
2021/10/18 14:59:41;;;;;;;6.07;2.33;;;;;;;;;;5042577;28;20029;-74
2021/10/18 15:02:10;;;;;;;5.22;2.42;;;;;;;;;;5042427;28;20032;-74
2021/10/18 15:04:36;;;;;;;8.48;2.92;;;;;;;;;;5044722;28;20026;-75
2021/10/18 15:07:05;;;;;;;7.00;2.33;;;;;;;;;;5047887;28;20065;-74
2021/10/18 15:09:31;;;;;;;9.82;2.72;;;;;;;;;;5041408;28;20411;-74
2021/10/18 15:11:57;;;;;;;6.30;2.13;;;;;;;;;;5038389;28;20025;-74
2021/10/18 15:14:23;;;;;;;4.30;1.77;;;;;;;;;;5035672;28;20037;-74
2021/10/18 15:16:49;;;;;;;9.98;2.38;;;;;;;;;;5048691;28;20094;-74
2021/10/18 15:19:15;;;;;;;4.93;1.90;;;;;;;;;;5038898;28;20403;-74
2021/10/18 15:21:42;;;;;;;6.55;2.40;;;;;;;;;;5038274;28;20068;-74
2021/10/18 15:24:08;;;;;;;6.32;2.70;;;;;;;;;;5037780;28;20033;-74
2021/10/18 15:26:34;;;;;;;9.32;2.70;;;;;;;;;;5046663;28;20067;-74
2021/10/18 15:29:02;;;;;;;6.90;2.70;;;;;;;;;;5041119;28;20026;-74
2021/10/18 15:31:28;;;;;;;9.25;2.65;;;;;;;;;;5043642;28;20048;-75
2021/10/18 15:33:54;;;;;;;8.63;2.88;;;;;;;;;;5039703;28;20382;-74
2021/10/18 15:36:21;;;;;;;9.07;3.28;;;;;;;;;;5039142;28;20047;-74
2021/10/18 15:38:47;;;;;;;6.70;3.42;;;;;;;;;;5050273;28;20028;-73
2021/10/18 15:41:13;;;;;;;10.05;4.30;;;;;;;;;;5045450;28;20078;-74
2021/10/18 15:43:39;;;;;;;11.48;4.18;;;;;;;;;;5060236;28;20089;-74
2021/10/18 15:46:05;;;;;;;15.10;5.15;;;;;;;;;;5060763;28;20498;-74
2021/10/18 15:48:31;;;;;;;12.52;5.35;;;;;;;;;;5048274;28;20075;-74
2021/10/18 15:50:57;;;;;;;10.80;4.25;;;;;;;;;;5040554;28;20033;-74